Time;durP1;ratioP1;P1;durP2;ratioP2;P2;SDS_P1;SDS_P2;PMS_P1;PMS_P2;Temp;Humidity;BMP_temperature;BMP_pressure;BME280_temperature;BME280_humidity;BME280_pressure;Samples;Min_cycle;Max_cycle;Signal;HPM_P1;HPM_P2
2022/11/15 00:01:42;;;;;;;57.43;26.40;;;;;;;4.99;100.00;100708.69;7389507;19;20421;-55
2022/11/15 00:04:12;;;;;;;58.07;27.60;;;;;;;4.93;100.00;100711.72;7392426;19;20397;-54
2022/11/15 00:06:42;;;;;;;57.10;27.90;;;;;;;4.88;100.00;100707.09;7390036;19;20431;-54
2022/11/15 00:09:11;;;;;;;58.77;25.80;;;;;;;5.00;100.00;100708.78;7392355;19;20945;-58
2022/11/15 00:11:43;;;;;;;53.50;26.27;;;;;;;5.01;100.00;100714.78;7390143;19;20405;-51
2022/11/15 00:14:13;;;;;;;53.13;26.50;;;;;;;4.99;100.00;100711.25;7396165;19;20405;-53
2022/11/15 00:16:42;;;;;;;53.07;26.40;;;;;;;4.97;100.00;100711.13;7389908;19;20442;-53
2022/11/15 00:19:12;;;;;;;50.03;25.20;;;;;;;4.94;100.00;100698.16;7391755;19;20381;-51
2022/11/15 00:21:41;;;;;;;53.20;25.83;;;;;;;4.93;100.00;100706.59;7390785;19;20418;-50
2022/11/15 00:24:11;;;;;;;47.83;25.40;;;;;;;5.08;100.00;100708.38;7393240;19;20397;-54
2022/11/15 00:26:40;;;;;;;50.27;25.30;;;;;;;5.23;100.00;100701.66;7390904;19;20427;-56
2022/11/15 00:29:12;;;;;;;57.60;27.57;;;;;;;5.12;100.00;100707.78;7392420;19;20395;-54
2022/11/15 00:31:42;;;;;;;51.57;25.53;;;;;;;4.99;100.00;100707.00;7390650;19;20442;-56
2022/11/15 00:34:12;;;;;;;53.90;27.30;;;;;;;5.03;100.00;100707.19;7393043;19;20398;-56
2022/11/15 00:36:41;;;;;;;49.17;24.30;;;;;;;4.99;100.00;100713.78;7390213;19;20946;-53
2022/11/15 00:39:11;;;;;;;53.90;27.17;;;;;;;4.85;100.00;100708.69;7392167;19;20428;-53
2022/11/15 00:41:40;;;;;;;53.40;26.30;;;;;;;5.20;100.00;100716.84;7389730;19;20444;-53
2022/11/15 00:44:12;;;;;;;58.17;26.63;;;;;;;5.28;100.00;100717.28;7392612;19;20722;-51
2022/11/15 00:46:42;;;;;;;55.50;27.50;;;;;;;5.25;100.00;100714.56;7390590;19;20430;-54
2022/11/15 00:49:11;;;;;;;51.13;24.83;;;;;;;5.13;100.00;100709.56;7392630;19;20382;-54
2022/11/15 00:51:41;;;;;;;55.07;25.30;;;;;;;5.11;100.00;100712.03;7390084;19;20436;-52
2022/11/15 00:54:10;;;;;;;54.70;26.07;;;;;;;5.32;100.00;100715.84;7393042;19;20419;-53
2022/11/15 00:56:39;;;;;;;58.73;28.73;;;;;;;5.10;100.00;100714.47;7390450;19;20411;-52
2022/11/15 00:59:09;;;;;;;55.93;26.33;;;;;;;4.99;100.00;100718.91;7392706;19;20390;-56
2022/11/15 01:01:41;;;;;;;70.17;35.03;;;;;;;5.33;100.00;100712.47;7390439;19;20425;-54
2022/11/15 01:04:10;;;;;;;52.03;25.30;;;;;;;5.13;100.00;100713.00;7392868;19;20377;-54
2022/11/15 01:06:40;;;;;;;72.67;32.50;;;;;;;5.18;100.00;100722.63;7389777;19;20939;-55
2022/11/15 01:09:09;;;;;;;64.40;29.70;;;;;;;5.09;100.00;100716.13;7391705;19;20393;-52
2022/11/15 01:11:38;;;;;;;58.93;29.57;;;;;;;5.14;100.00;100721.56;7390008;19;20433;-54
2022/11/15 01:14:08;;;;;;;66.20;31.63;;;;;;;5.11;100.00;100718.78;7393166;19;20389;-52
2022/11/15 01:16:37;;;;;;;67.43;31.30;;;;;;;5.12;100.00;100720.56;7388270;19;21147;-58
2022/11/15 01:19:09;;;;;;;56.97;28.07;;;;;;;5.29;100.00;100718.19;7391877;19;20912;-54
2022/11/15 01:21:39;;;;;;;51.67;24.87;;;;;;;5.54;100.00;100716.34;7391824;19;20455;-54
2022/11/15 01:24:08;;;;;;;58.50;27.00;;;;;;;5.21;100.00;100716.03;7393039;19;20385;-54
2022/11/15 01:26:38;;;;;;;55.03;26.30;;;;;;;5.24;100.00;100723.03;7389998;19;20409;-56
2022/11/15 01:29:07;;;;;;;50.87;26.93;;;;;;;5.18;100.00;100717.53;7391346;19;21040;-54
2022/11/15 01:31:37;;;;;;;52.10;25.40;;;;;;;5.00;100.00;100718.13;7389089;19;20426;-54
2022/11/15 01:34:09;;;;;;;54.43;26.30;;;;;;;4.93;100.00;100711.72;7391953;19;20383;-56
2022/11/15 01:36:39;;;;;;;48.73;24.30;;;;;;;5.19;100.00;100709.94;7389006;19;20400;-56
2022/11/15 01:39:08;;;;;;;45.27;24.20;;;;;;;5.20;100.00;100706.59;7391816;19;20409;-56
2022/11/15 01:41:38;;;;;;;49.57;25.33;;;;;;;5.27;100.00;100712.97;7389392;19;20428;-56
2022/11/15 01:44:37;;;;;;;45.27;23.80;;;;;;;5.11;100.00;100704.34;7391684;19;20408;-57
2022/11/15 01:47:11;;;;;;;51.23;25.80;;;;;;;4.89;100.00;100709.78;7389766;19;20809;-55
2022/11/15 01:49:49;;;;;;;46.73;24.53;;;;;;;5.06;100.00;100713.41;7391028;19;20407;-56
2022/11/15 01:52:21;;;;;;;52.90;26.10;;;;;;;5.19;100.00;100709.94;7388616;19;20454;-55
2022/11/15 01:54:54;;;;;;;48.70;24.50;;;;;;;4.97;100.00;100708.56;7391703;19;20415;-53
2022/11/15 01:57:24;;;;;;;58.60;24.97;;;;;;;4.71;100.00;100706.91;7390732;19;20398;-55
2022/11/15 01:59:53;;;;;;;57.37;25.77;;;;;;;4.61;100.00;100719.88;7390783;19;20756;-55
2022/11/15 02:02:23;;;;;;;53.97;25.67;;;;;;;4.50;100.00;100724.28;7379065;19;20448;-57
2022/11/15 02:04:55;;;;;;;47.23;24.73;;;;;;;4.67;100.00;100717.72;7391228;19;20393;-55
2022/11/15 02:07:24;;;;;;;54.20;23.83;;;;;;;4.67;100.00;100702.38;7390887;19;20422;-53
2022/11/15 02:09:55;;;;;;;49.93;24.20;;;;;;;4.70;100.00;100700.91;7394522;19;20392;-58
2022/11/15 02:12:25;;;;;;;52.23;24.90;;;;;;;4.75;100.00;100690.09;7389784;19;20448;-55
2022/11/15 02:14:56;;;;;;;44.53;23.80;;;;;;;4.61;100.00;100684.97;7390922;19;20407;-56
2022/11/15 02:17:35;;;;;;;49.83;24.43;;;;;;;4.45;100.00;100696.75;7390432;19;20415;-53
2022/11/15 02:20:37;;;;;;;51.43;25.23;;;;;;;4.60;100.00;100690.88;7387155;19;20391;-53
2022/11/15 02:23:37;;;;;;;51.00;25.80;;;;;;;4.42;100.00;100686.31;7390060;19;20431;-55
2022/11/15 02:26:27;;;;;;;52.30;25.67;;;;;;;4.52;100.00;100698.03;7388084;19;20451;-56
2022/11/15 02:29:02;;;;;;;50.83;26.43;;;;;;;4.49;100.00;100691.84;7385521;19;20402;-56
2022/11/15 02:31:39;;;;;;;48.50;24.63;;;;;;;4.36;100.00;100691.03;7389298;19;20442;-53
2022/11/15 02:34:11;;;;;;;47.63;24.27;;;;;;;4.35;100.00;100681.59;7395325;19;20971;-56
2022/11/15 02:36:46;;;;;;;46.50;23.90;;;;;;;4.31;100.00;100687.31;7387115;19;20426;-51
2022/11/15 02:39:23;;;;;;;46.97;24.77;;;;;;;4.40;100.00;100676.78;7394453;19;20395;-59
2022/11/15 02:41:57;;;;;;;50.13;24.43;;;;;;;4.37;100.00;100671.50;7387531;19;20977;-58
2022/11/15 02:44:26;;;;;;;48.27;24.80;;;;;;;4.54;100.00;100680.25;7390410;19;20388;-52
2022/11/15 02:49:45;;;;;;;52.63;25.13;;;;;;;4.31;100.00;100666.88;7389587;19;20471;-58
2022/11/15 02:52:17;;;;;;;50.87;24.00;;;;;;;4.26;100.00;100676.78;7387512;19;20422;-58
2022/11/15 02:54:55;;;;;;;50.53;24.50;;;;;;;4.10;100.00;100674.88;7390020;19;20389;-55
2022/11/15 02:57:34;;;;;;;51.00;24.83;;;;;;;4.15;100.00;100665.84;7389335;19;20528;-56
2022/11/15 03:00:08;;;;;;;47.17;23.67;;;;;;;4.19;100.00;100664.38;7387223;19;20400;-57
2022/11/15 03:03:00;;;;;;;48.03;24.47;;;;;;;4.15;100.00;100664.97;7387866;19;20481;-55
2022/11/15 03:05:36;;;;;;;46.00;24.27;;;;;;;3.99;100.00;100665.63;7387159;19;20432;-55
2022/11/15 03:08:10;;;;;;;49.50;24.63;;;;;;;4.08;100.00;100662.78;7389706;19;20393;-57
2022/11/15 03:10:47;;;;;;;46.73;23.77;;;;;;;4.08;100.00;100661.13;7389373;19;20399;-58
2022/11/15 03:13:25;;;;;;;54.27;25.40;;;;;;;4.15;100.00;100665.84;7388727;19;20767;-56
2022/11/15 03:16:00;;;;;;;47.00;22.50;;;;;;;4.38;100.00;100674.16;7387722;19;20789;-58
2022/11/15 03:18:35;;;;;;;46.83;24.30;;;;;;;4.16;100.00;100672.72;7389465;19;20738;-59
2022/11/15 03:21:08;;;;;;;51.13;24.00;;;;;;;4.12;100.00;100668.22;7387028;19;20426;-58
2022/11/15 03:23:39;;;;;;;46.60;23.97;;;;;;;4.09;100.00;100669.69;7387216;19;20442;-57
2022/11/15 03:26:11;;;;;;;50.33;22.90;;;;;;;4.15;100.00;100670.97;7389567;19;20424;-58
2022/11/15 03:28:43;;;;;;;41.90;22.73;;;;;;;4.13;100.00;100669.97;7388458;19;20413;-55
2022/11/15 03:34:02;;;;;;;43.57;22.73;;;;;;;4.00;100.00;100669.94;7387037;19;20430;-58
2022/11/15 03:36:33;;;;;;;44.77;22.93;;;;;;;4.04;100.00;100672.81;7386746;19;20416;-58
2022/11/15 03:39:05;;;;;;;48.00;23.30;;;;;;;3.94;100.00;100667.00;7390836;19;20395;-58
2022/11/15 03:41:38;;;;;;;45.03;22.80;;;;;;;3.94;100.00;100669.53;7392538;19;20968;-56
2022/11/15 03:44:14;;;;;;;46.70;23.13;;;;;;;4.05;100.00;100658.34;7396046;19;21228;-56
2022/11/15 03:46:49;;;;;;;47.40;23.30;;;;;;;4.02;100.00;100653.06;7393508;19;20429;-57
2022/11/15 03:49:25;;;;;;;48.43;23.37;;;;;;;4.05;100.00;100653.25;7395494;19;20410;-58
2022/11/15 03:51:55;;;;;;;53.10;24.30;;;;;;;4.07;100.00;100650.81;7393408;19;20431;-58
2022/11/15 03:54:24;;;;;;;46.07;24.70;;;;;;;4.12;100.00;100650.34;7395121;19;20418;-55
2022/11/15 03:56:54;;;;;;;42.97;21.90;;;;;;;4.10;100.00;100646.78;7393172;19;20424;-58
2022/11/15 03:59:23;;;;;;;45.57;23.47;;;;;;;4.24;100.00;100654.47;7395567;19;20394;-58
2022/11/15 04:01:53;;;;;;;47.33;22.83;;;;;;;4.18;100.00;100650.75;7392132;19;20439;-58
2022/11/15 04:04:25;;;;;;;40.80;22.30;;;;;;;4.19;100.00;100660.16;7395720;19;20411;-58
2022/11/15 04:06:54;;;;;;;47.47;22.60;;;;;;;4.01;100.00;100652.16;7392821;19;20435;-56
2022/11/15 04:09:24;;;;;;;44.50;22.27;;;;;;;4.17;100.00;100659.16;7394722;19;20396;-57
2022/11/15 04:11:53;;;;;;;64.33;31.67;;;;;;;4.60;100.00;100652.53;7392107;19;20419;-57
2022/11/15 04:14:23;;;;;;;54.87;28.37;;;;;;;4.45;100.00;100650.78;7394876;19;20388;-56
2022/11/15 04:16:52;;;;;;;123.40;56.00;;;;;;;4.65;100.00;100645.16;7394810;19;20438;-57
2022/11/15 04:24:48;;;;;;;53.37;28.03;;;;;;;5.04;100.00;100647.59;7398005;19;20412;-59
2022/11/15 04:27:17;;;;;;;48.23;24.60;;;;;;;5.14;100.00;100655.06;7392747;19;20445;-55
2022/11/15 04:29:47;;;;;;;38.90;20.90;;;;;;;5.07;100.00;100664.00;7396723;19;20432;-58
2022/11/15 04:32:16;;;;;;;40.70;19.40;;;;;;;4.64;100.00;100677.50;7391074;19;20952;-56
2022/11/15 04:34:48;;;;;;;39.07;19.57;;;;;;;4.43;100.00;100687.22;7394249;19;20412;-56
2022/11/15 04:37:18;;;;;;;38.17;19.70;;;;;;;4.40;100.00;100685.34;7393332;19;20458;-58
2022/11/15 04:39:47;;;;;;;40.93;20.17;;;;;;;4.56;100.00;100678.69;7393497;19;20407;-58
2022/11/15 04:42:16;;;;;;;35.53;19.40;;;;;;;4.31;100.00;100688.19;7390850;19;20412;-58
2022/11/15 04:44:46;;;;;;;35.80;19.70;;;;;;;4.22;100.00;100696.91;7394269;19;20423;-55
2022/11/15 04:47:15;;;;;;;34.50;19.63;;;;;;;4.45;100.00;100689.09;7391649;19;20423;-57
2022/11/15 04:49:47;;;;;;;37.43;21.10;;;;;;;4.52;100.00;100686.94;7393094;19;20391;-58
2022/11/15 04:52:17;;;;;;;34.37;19.50;;;;;;;4.37;100.00;100686.81;7388153;19;20470;-56
2022/11/15 04:54:46;;;;;;;37.07;20.90;;;;;;;4.39;100.00;100692.91;7393690;19;20391;-59
2022/11/15 04:57:16;;;;;;;40.10;20.27;;;;;;;4.52;100.00;100692.91;7390944;19;20428;-58
2022/11/15 04:59:46;;;;;;;40.07;21.40;;;;;;;4.75;100.00;100679.84;7393014;19;20383;-57
2022/11/15 05:02:15;;;;;;;39.70;20.90;;;;;;;4.80;100.00;100681.03;7390470;19;21077;-54
2022/11/15 05:04:45;;;;;;;37.67;19.80;;;;;;;4.78;100.00;100674.97;7397821;19;20411;-58
2022/11/15 05:07:14;;;;;;;39.73;21.03;;;;;;;5.09;100.00;100676.91;7390461;19;20421;-58
2022/11/15 05:09:44;;;;;;;40.13;19.77;;;;;;;5.05;100.00;100667.25;7392466;19;20405;-58
2022/11/15 05:12:13;;;;;;;35.90;20.27;;;;;;;5.07;100.00;100668.25;7389907;19;20463;-58
2022/11/15 05:14:43;;;;;;;35.97;20.50;;;;;;;5.05;100.00;100663.03;7393173;19;20395;-57
2022/11/15 05:17:12;;;;;;;38.03;20.90;;;;;;;4.85;100.00;100664.31;7391015;19;20421;-58
2022/11/15 05:19:41;;;;;;;39.87;21.07;;;;;;;4.85;100.00;100666.88;7392278;19;20757;-58
2022/11/15 05:22:14;;;;;;;40.70;21.17;;;;;;;4.92;100.00;100660.50;7389968;19;21004;-56
2022/11/15 05:24:43;;;;;;;34.57;18.63;;;;;;;4.84;100.00;100660.91;7392467;19;20962;-57
2022/11/15 05:27:13;;;;;;;34.40;18.63;;;;;;;5.07;100.00;100658.88;7390709;19;20413;-58
2022/11/15 05:29:42;;;;;;;37.23;19.83;;;;;;;4.96;100.00;100655.66;7391774;19;20404;-57
2022/11/15 05:32:12;;;;;;;34.40;18.60;;;;;;;4.78;100.00;100657.97;7389497;19;20777;-58
2022/11/15 05:34:41;;;;;;;35.67;18.80;;;;;;;5.09;100.00;100638.53;7395241;19;20923;-55
2022/11/15 05:37:13;;;;;;;34.60;18.03;;;;;;;5.05;100.00;100644.22;7389718;19;20448;-58
2022/11/15 05:39:43;;;;;;;35.93;18.60;;;;;;;4.96;100.00;100650.56;7391755;19;20997;-55
2022/11/15 05:42:14;;;;;;;31.97;17.80;;;;;;;4.88;100.00;100656.88;7388969;19;20431;-56
2022/11/15 05:44:46;;;;;;;35.73;19.07;;;;;;;4.90;100.00;100650.16;7391987;19;20389;-57
2022/11/15 05:47:19;;;;;;;35.43;19.73;;;;;;;4.91;100.00;100646.81;7389824;19;20423;-57
2022/11/15 05:49:50;;;;;;;36.20;19.23;;;;;;;4.94;100.00;100644.47;7391394;19;20965;-55
2022/11/15 05:52:25;;;;;;;37.13;18.60;;;;;;;4.87;100.00;100632.06;7388752;19;20445;-52
2022/11/15 05:54:55;;;;;;;41.40;17.83;;;;;;;5.01;100.00;100635.50;7391788;19;20418;-55
2022/11/15 05:57:24;;;;;;;38.13;18.70;;;;;;;5.06;100.00;100638.31;7391545;19;20446;-58
2022/11/15 05:59:54;;;;;;;33.60;19.17;;;;;;;5.19;100.00;100637.44;7391127;19;20420;-56
2022/11/15 06:02:23;;;;;;;31.80;18.43;;;;;;;4.95;100.00;100637.66;7388920;19;20894;-55
2022/11/15 06:04:53;;;;;;;32.57;17.70;;;;;;;4.94;100.00;100631.69;7391045;19;21059;-54
2022/11/15 06:07:25;;;;;;;34.60;17.70;;;;;;;5.03;100.00;100638.16;7390525;19;20422;-54
2022/11/15 06:09:55;;;;;;;34.73;18.13;;;;;;;5.04;100.00;100634.81;7390555;19;20396;-57
2022/11/15 06:12:24;;;;;;;33.53;18.10;;;;;;;5.01;100.00;100632.94;7389499;19;20432;-54
2022/11/15 06:14:54;;;;;;;36.07;18.53;;;;;;;5.10;100.00;100627.50;7391656;19;20927;-56
2022/11/15 06:17:23;;;;;;;32.53;18.20;;;;;;;5.17;100.00;100639.88;7390782;19;20787;-53
2022/11/15 06:19:52;;;;;;;37.10;19.17;;;;;;;5.11;100.00;100640.41;7390479;19;20383;-56
2022/11/15 06:22:28;;;;;;;32.80;17.60;;;;;;;4.99;100.00;100640.50;7389190;19;20409;-58
2022/11/15 06:24:57;;;;;;;30.97;18.47;;;;;;;5.36;100.00;100635.91;7392096;19;20432;-56
2022/11/15 06:27:33;;;;;;;35.20;18.60;;;;;;;5.31;100.00;100639.84;7390225;19;20747;-55
2022/11/15 06:30:03;;;;;;;34.90;19.43;;;;;;;5.35;100.00;100639.25;7391972;19;20410;-56
2022/11/15 06:32:32;;;;;;;33.40;17.23;;;;;;;5.47;100.00;100632.31;7389562;19;20406;-60
2022/11/15 06:35:02;;;;;;;29.63;17.10;;;;;;;5.33;100.00;100635.72;7388315;19;20392;-58
2022/11/15 06:37:36;;;;;;;35.20;17.70;;;;;;;5.39;100.00;100636.09;7389792;19;20395;-57
2022/11/15 06:40:06;;;;;;;32.93;17.60;;;;;;;5.46;100.00;100639.91;7387910;19;20413;-53
2022/11/15 06:42:35;;;;;;;35.90;18.77;;;;;;;5.48;100.00;100635.78;7388998;19;20425;-54
2022/11/15 06:45:05;;;;;;;34.60;17.60;;;;;;;5.47;100.00;100641.66;7388560;19;20405;-57
2022/11/15 06:47:35;;;;;;;34.43;18.07;;;;;;;5.34;100.00;100647.72;7390023;19;20401;-58
2022/11/15 06:50:04;;;;;;;35.07;17.93;;;;;;;5.39;100.00;100648.91;7387147;19;20399;-57
2022/11/15 06:52:37;;;;;;;33.63;18.13;;;;;;;5.37;100.00;100653.00;7388728;19;20433;-53
2022/11/15 06:55:08;;;;;;;32.63;17.33;;;;;;;5.59;100.00;100654.34;7387172;19;20405;-56
2022/11/15 06:57:38;;;;;;;37.33;19.47;;;;;;;5.65;100.00;100649.59;7390116;19;20413;-57
2022/11/15 07:00:09;;;;;;;34.90;17.40;;;;;;;5.73;100.00;100645.78;7386832;19;20795;-58
2022/11/15 07:02:39;;;;;;;31.70;17.90;;;;;;;5.71;100.00;100655.06;7388549;19;20432;-55
2022/11/15 07:05:09;;;;;;;33.40;16.93;;;;;;;5.58;100.00;100667.94;7387569;19;20746;-56
2022/11/15 07:07:41;;;;;;;32.90;17.10;;;;;;;5.50;100.00;100670.88;7389212;19;20409;-57
2022/11/15 07:10:11;;;;;;;29.77;16.57;;;;;;;5.52;100.00;100670.97;7390442;19;20393;-58
2022/11/15 07:12:41;;;;;;;36.70;17.90;;;;;;;5.55;100.00;100676.31;7388326;19;20430;-58
2022/11/15 07:15:12;;;;;;;34.63;18.63;;;;;;;5.67;100.00;100676.16;7393587;19;20406;-55
2022/11/15 07:17:41;;;;;;;34.70;18.33;;;;;;;5.84;100.00;100666.03;7396990;19;20429;-58
2022/11/15 07:20:11;;;;;;;31.57;18.97;;;;;;;5.77;100.00;100681.03;7395227;19;21264;-58
2022/11/15 07:22:45;;;;;;;35.07;17.90;;;;;;;6.00;100.00;100684.06;7396190;19;20418;-55
2022/11/15 07:25:14;;;;;;;31.37;18.20;;;;;;;6.08;100.00;100671.75;7392839;19;20390;-56
2022/11/15 07:27:44;;;;;;;33.97;18.37;;;;;;;6.13;100.00;100679.69;7396769;19;20945;-56
2022/11/15 07:30:15;;;;;;;33.13;19.03;;;;;;;6.03;100.00;100689.41;7393599;19;20411;-59
2022/11/15 07:32:44;;;;;;;30.77;18.27;;;;;;;6.02;100.00;100687.66;7394887;19;20426;-57
2022/11/15 07:35:14;;;;;;;29.80;16.60;;;;;;;5.93;100.00;100692.19;7393758;19;20391;-53
2022/11/15 07:37:46;;;;;;;32.93;17.80;;;;;;;5.88;100.00;100698.69;7396172;19;20433;-58
2022/11/15 07:40:15;;;;;;;32.70;17.00;;;;;;;5.89;100.00;100697.94;7390678;19;20428;-57
2022/11/15 07:42:56;;;;;;;33.67;18.17;;;;;;;6.05;100.00;100699.75;7394481;19;20741;-57
2022/11/15 07:45:28;;;;;;;36.17;19.10;;;;;;;5.98;100.00;100706.16;7393524;19;20760;-57
2022/11/15 07:47:58;;;;;;;30.30;17.27;;;;;;;5.98;100.00;100706.16;7395902;19;20410;-59
2022/11/15 07:50:28;;;;;;;30.43;17.07;;;;;;;6.07;100.00;100705.84;7393380;19;20393;-55
2022/11/15 07:53:02;;;;;;;29.80;17.03;;;;;;;6.14;100.00;100709.66;7394799;19;20462;-57
2022/11/15 07:55:31;;;;;;;31.70;17.30;;;;;;;6.08;100.00;100711.06;7393223;19;20816;-58
2022/11/15 07:58:04;;;;;;;27.60;16.50;;;;;;;6.07;100.00;100711.84;7396264;19;20403;-54
2022/11/15 08:00:35;;;;;;;31.97;17.37;;;;;;;6.15;100.00;100708.88;7391760;19;20421;-59
2022/11/15 08:03:05;;;;;;;30.20;17.20;;;;;;;6.09;100.00;100709.38;7393532;19;20453;-58
2022/11/15 08:05:35;;;;;;;27.90;16.87;;;;;;;6.19;100.00;100705.69;7391260;19;20444;-52
2022/11/15 08:08:08;;;;;;;32.37;16.87;;;;;;;6.21;100.00;100709.25;7395283;19;20755;-54
2022/11/15 08:10:38;;;;;;;29.73;16.77;;;;;;;6.18;100.00;100703.91;7392835;19;20410;-59
2022/11/15 08:13:10;;;;;;;33.67;17.27;;;;;;;6.33;100.00;100694.59;7393847;19;20448;-53
2022/11/15 08:15:40;;;;;;;27.40;16.50;;;;;;;6.32;100.00;100689.34;7392341;19;20410;-59
2022/11/15 08:18:16;;;;;;;30.63;16.70;;;;;;;6.28;100.00;100698.53;7398547;19;20772;-55
2022/11/15 08:20:46;;;;;;;29.50;16.30;;;;;;;6.23;100.00;100694.81;7392194;19;20409;-58
2022/11/15 08:23:18;;;;;;;27.90;16.60;;;;;;;6.47;100.00;100702.19;7392607;19;20439;-59
2022/11/15 08:25:48;;;;;;;32.70;17.27;;;;;;;6.53;100.00;100701.63;7389329;19;20423;-59
2022/11/15 08:28:19;;;;;;;30.67;17.40;;;;;;;6.51;100.00;100698.97;7393378;19;20400;-56
2022/11/15 08:30:48;;;;;;;31.07;16.20;;;;;;;6.68;100.00;100696.50;7389585;19;20784;-57
2022/11/15 08:33:18;;;;;;;29.77;17.67;;;;;;;6.57;100.00;100701.88;7396634;19;20980;-55
2022/11/15 08:35:47;;;;;;;33.30;17.37;;;;;;;6.51;100.00;100698.97;7393506;19;20426;-59
2022/11/15 08:38:19;;;;;;;28.60;15.73;;;;;;;6.42;100.00;100718.97;7397570;19;20406;-52
2022/11/15 08:40:49;;;;;;;29.03;16.00;;;;;;;6.42;100.00;100713.84;7391532;19;20430;-53
2022/11/15 08:43:18;;;;;;;32.67;16.80;;;;;;;6.50;100.00;100710.03;7392492;19;20437;-53
2022/11/15 08:45:48;;;;;;;30.50;18.00;;;;;;;6.49;100.00;100710.81;7389863;19;20410;-57
2022/11/15 08:48:17;;;;;;;27.93;15.97;;;;;;;6.47;100.00;100713.28;7396773;19;20403;-57
2022/11/15 08:50:47;;;;;;;27.63;15.97;;;;;;;6.51;100.00;100714.34;7391133;19;20415;-59
2022/11/15 08:53:19;;;;;;;35.60;16.43;;;;;;;6.45;100.00;100714.00;7390870;19;20438;-56
2022/11/15 08:55:49;;;;;;;34.13;17.20;;;;;;;7.82;100.00;100716.31;7390091;19;20403;-54
2022/11/15 08:58:19;;;;;;;45.53;24.17;;;;;;;7.68;100.00;100731.88;7393667;19;20384;-58
2022/11/15 09:00:48;;;;;;;44.20;23.80;;;;;;;8.01;100.00;100738.72;7390320;19;20423;-57
2022/11/15 09:03:18;;;;;;;60.53;33.30;;;;;;;7.70;100.00;100737.97;7392433;19;20415;-60
2022/11/15 09:05:47;;;;;;;33.53;17.77;;;;;;;7.32;100.00;100744.50;7392819;19;20418;-56
2022/11/15 09:08:19;;;;;;;27.57;15.17;;;;;;;7.07;100.00;100743.13;7392563;19;20739;-56
2022/11/15 09:11:10;;;;;;;71.00;35.90;;;;;;;7.10;100.00;100753.56;7390513;19;20443;-53
2022/11/15 09:13:40;;;;;;;66.37;33.30;;;;;;;7.24;100.00;100745.75;7391254;19;20453;-57
2022/11/15 09:16:11;;;;;;;65.33;34.50;;;;;;;7.24;100.00;100745.75;7391058;19;20807;-57
2022/11/15 09:18:41;;;;;;;70.27;35.77;;;;;;;7.13;100.00;100750.31;7393723;19;20416;-58
2022/11/15 09:21:11;;;;;;;48.50;25.00;;;;;;;7.02;100.00;100744.53;7389802;19;20430;-56
2022/11/15 09:23:43;;;;;;;39.83;21.10;;;;;;;7.04;100.00;100740.41;7390522;19;20431;-59
2022/11/15 09:26:12;;;;;;;37.40;20.33;;;;;;;7.03;100.00;100738.66;7389711;19;20411;-59
2022/11/15 09:28:42;;;;;;;54.53;29.27;;;;;;;7.10;100.00;100743.31;7391609;19;20475;-54
2022/11/15 09:31:12;;;;;;;38.07;22.43;;;;;;;7.12;100.00;100741.72;7389694;19;20781;-57
2022/11/15 09:33:49;;;;;;;52.03;28.23;;;;;;;7.19;100.00;100736.91;7390229;19;20998;-52
2022/11/15 09:36:19;;;;;;;30.70;15.60;;;;;;;7.07;100.00;100743.13;7385860;19;20465;-59
2022/11/15 09:38:51;;;;;;;35.03;19.40;;;;;;;7.10;100.00;100739.84;7393778;19;20395;-55
2022/11/15 09:41:31;;;;;;;51.90;26.23;;;;;;;7.24;100.00;100746.63;7389011;19;20430;-58
2022/11/15 09:44:11;;;;;;;26.50;15.77;;;;;;;7.36;100.00;100738.72;7391251;19;20446;-56
2022/11/15 09:46:49;;;;;;;23.93;14.23;;;;;;;7.26;100.00;100742.47;7389950;19;20963;-54
2022/11/15 09:49:19;;;;;;;23.70;14.30;;;;;;;7.18;100.00;100743.72;7390236;19;20374;-55
2022/11/15 09:51:51;;;;;;;27.03;15.57;;;;;;;7.13;100.00;100746.03;7388783;19;20811;-56
2022/11/15 09:54:31;;;;;;;23.87;14.17;;;;;;;7.13;100.00;100743.47;7390056;19;20390;-54
2022/11/15 09:57:23;;;;;;;27.67;16.00;;;;;;;7.15;100.00;100741.91;7388766;19;20415;-58
2022/11/15 10:00:01;;;;;;;23.00;14.07;;;;;;;7.36;100.00;100738.72;7390671;19;20391;-57
2022/11/15 10:03:01;;;;;;;22.73;13.30;;;;;;;7.47;100.00;100739.31;7391307;19;20415;-58
2022/11/15 10:05:31;;;;;;;29.83;16.13;;;;;;;7.52;100.00;100743.00;7388194;19;20781;-57
2022/11/15 10:08:06;;;;;;;25.33;15.40;;;;;;;7.50;100.00;100736.03;7391568;19;20411;-57
2022/11/15 10:10:41;;;;;;;22.03;13.63;;;;;;;7.57;100.00;100749.28;7388789;19;20391;-55
2022/11/15 10:13:15;;;;;;;25.93;14.37;;;;;;;7.64;100.00;100739.34;7389385;19;20445;-56
2022/11/15 10:15:48;;;;;;;27.83;15.03;;;;;;;7.78;100.00;100729.78;7386155;19;20497;-58
2022/11/15 10:18:19;;;;;;;26.43;14.50;;;;;;;7.89;100.00;100735.50;7390472;19;20387;-52
2022/11/15 10:20:54;;;;;;;28.10;13.57;;;;;;;7.79;100.00;100741.84;7389349;19;20450;-57
2022/11/15 10:23:25;;;;;;;27.00;13.57;;;;;;;7.91;100.00;100736.47;7389433;19;20415;-52
2022/11/15 10:25:59;;;;;;;25.90;14.53;;;;;;;7.88;100.00;100732.03;7388483;19;20399;-55
2022/11/15 10:28:35;;;;;;;25.40;15.00;;;;;;;7.98;100.00;100728.25;7389382;19;20803;-55
2022/11/15 10:31:05;;;;;;;23.07;13.80;;;;;;;7.93;100.00;100724.56;7387822;19;20437;-57
2022/11/15 10:33:36;;;;;;;22.03;13.57;;;;;;;7.90;100.00;100727.00;7388721;19;20971;-52
2022/11/15 10:36:23;;;;;;;27.23;15.73;;;;;;;8.04;100.00;100731.16;7386124;19;20796;-53
2022/11/15 10:38:58;;;;;;;23.50;13.20;;;;;;;8.15;100.00;100720.56;7389608;19;20387;-58
2022/11/15 10:41:40;;;;;;;21.93;12.63;;;;;;;8.20;100.00;100714.81;7387362;19;20430;-56
2022/11/15 10:44:28;;;;;;;26.23;13.80;;;;;;;8.15;100.00;100708.56;7391463;19;20452;-57
2022/11/15 10:47:23;;;;;;;24.77;15.07;;;;;;;8.16;100.00;100707.75;7387116;19;20434;-61
2022/11/15 10:50:28;;;;;;;23.00;13.40;;;;;;;8.10;100.00;100699.72;7396969;19;20404;-56
2022/11/15 10:52:57;;;;;;;22.83;13.13;;;;;;;8.11;100.00;100711.81;7395968;19;20429;-55
2022/11/15 10:55:29;;;;;;;21.03;13.40;;;;;;;8.06;100.00;100701.25;7394896;19;20436;-51
2022/11/15 10:58:04;;;;;;;23.30;13.70;;;;;;;8.11;100.00;100701.53;7397199;19;21250;-53
2022/11/15 11:00:39;;;;;;;28.83;15.30;;;;;;;8.13;100.00;100694.75;7384423;19;20465;-55
2022/11/15 11:03:22;;;;;;;24.23;14.10;;;;;;;8.20;100.00;100694.25;7395737;19;20481;-54
2022/11/15 11:06:05;;;;;;;23.63;14.57;;;;;;;8.27;100.00;100700.59;7393590;19;20443;-57
2022/11/15 11:08:35;;;;;;;22.40;14.80;;;;;;;8.31;100.00;100696.50;7396242;19;20395;-59
2022/11/15 11:11:06;;;;;;;22.07;13.07;;;;;;;8.32;100.00;100687.97;7394060;19;20449;-55
2022/11/15 11:13:40;;;;;;;22.37;12.60;;;;;;;8.36;100.00;100680.47;7394506;19;20407;-56
2022/11/15 11:16:24;;;;;;;24.00;13.40;;;;;;;8.40;100.00;100676.38;7396391;19;20427;-58
2022/11/15 11:19:07;;;;;;;23.20;14.23;;;;;;;8.46;100.00;100670.66;7396134;19;20387;-57
2022/11/15 11:21:49;;;;;;;21.13;12.70;;;;;;;8.49;100.00;100669.13;7393007;19;20419;-57
2022/11/15 11:24:25;;;;;;;21.47;13.10;;;;;;;8.55;100.00;100665.13;7396351;19;20390;-53
2022/11/15 11:27:06;;;;;;;21.87;13.93;;;;;;;8.60;100.00;100664.53;7391490;19;20427;-58
2022/11/15 11:29:47;;;;;;;22.03;13.40;;;;;;;8.67;100.00;100670.84;7395639;19;20398;-54
2022/11/15 11:32:30;;;;;;;26.23;13.17;;;;;;;8.71;100.00;100666.75;7396299;19;20493;-55
2022/11/15 11:35:08;;;;;;;22.83;11.83;;;;;;;8.73;100.00;100663.41;7393798;19;20411;-58
2022/11/15 11:37:42;;;;;;;20.67;12.43;;;;;;;8.73;100.00;100660.84;7393967;19;20398;-53
2022/11/15 11:40:31;;;;;;;18.87;11.97;;;;;;;8.78;100.00;100653.38;7394166;19;20755;-55
2022/11/15 11:43:07;;;;;;;24.57;12.63;;;;;;;8.87;100.00;100652.94;7394733;19;20535;-54
2022/11/15 11:45:51;;;;;;;52.20;27.90;;;;;;;8.92;100.00;100661.72;7393337;19;21357;-58